Time;durP1;ratioP1;P1;durP2;ratioP2;P2;SDS_P1;SDS_P2;PMS_P1;PMS_P2;Temp;Humidity;BMP_temperature;BMP_pressure;BME280_temperature;BME280_humidity;BME280_pressure;Samples;Min_cycle;Max_cycle;Signal;HPM_P1;HPM_P2
2024/01/13 00:02:25;;;;;;;14.93;10.40;;;;;;;-0.54;94.60;100293.88;5071602;28;20198;-57
2024/01/13 00:04:53;;;;;;;16.07;9.73;;;;;;;-0.52;94.50;100297.31;5071832;28;20198;-59
2024/01/13 00:07:22;;;;;;;17.60;10.27;;;;;;;-0.51;94.45;100299.06;5072929;28;20662;-59
2024/01/13 00:09:50;;;;;;;13.93;9.77;;;;;;;-0.49;94.48;100294.88;5072243;28;20671;-59
2024/01/13 00:12:18;;;;;;;18.80;10.60;;;;;;;-0.51;94.57;100286.41;5068550;28;20209;-59
2024/01/13 00:14:46;;;;;;;14.67;9.33;;;;;;;-0.47;94.13;100294.09;5066555;28;20205;-63
2024/01/13 00:17:14;;;;;;;16.70;10.23;;;;;;;-0.47;94.16;100296.63;5069137;28;20212;-57
2024/01/13 00:19:42;;;;;;;18.70;9.47;;;;;;;-0.46;93.97;100284.03;5066791;28;20202;-57
2024/01/13 00:22:10;;;;;;;16.27;11.03;;;;;;;-0.46;93.81;100285.69;5071899;28;20636;-58
2024/01/13 00:24:40;;;;;;;15.43;9.53;;;;;;;-0.49;93.59;100291.50;5071569;28;20292;-58
2024/01/13 00:27:08;;;;;;;13.90;8.80;;;;;;;-0.49;94.25;100282.22;5069066;28;20287;-58
2024/01/13 00:29:36;;;;;;;13.73;9.23;;;;;;;-0.50;93.89;100277.13;5067054;28;20223;-59
2024/01/13 00:32:04;;;;;;;14.80;9.67;;;;;;;-0.50;94.04;100288.09;5069390;28;20201;-60
2024/01/13 00:34:33;;;;;;;16.97;10.10;;;;;;;-0.46;93.90;100280.63;5069029;28;20205;-57
2024/01/13 00:37:01;;;;;;;12.73;9.33;;;;;;;-0.47;93.82;100291.56;5071644;28;20259;-57
2024/01/13 00:39:29;;;;;;;12.90;9.27;;;;;;;-0.47;94.11;100289.91;5071549;28;20213;-56
2024/01/13 00:41:58;;;;;;;15.67;10.77;;;;;;;-0.46;93.54;100293.28;5071435;28;20321;-59
2024/01/13 00:44:26;;;;;;;14.80;8.80;;;;;;;-0.45;94.16;100288.28;5070723;28;20193;-55
2024/01/13 00:46:54;;;;;;;13.20;8.67;;;;;;;-0.45;93.88;100285.75;5063756;28;20202;-55
2024/01/13 00:49:22;;;;;;;14.33;9.00;;;;;;;-0.43;92.92;100278.22;5064744;28;20734;-58
2024/01/13 00:51:50;;;;;;;12.30;8.63;;;;;;;-0.44;93.61;100268.88;5070778;28;20208;-57
2024/01/13 00:54:18;;;;;;;14.33;8.70;;;;;;;-0.44;93.53;100273.94;5068051;28;20676;-59
2024/01/13 00:56:46;;;;;;;13.27;8.67;;;;;;;-0.42;92.85;100275.72;5070679;28;20197;-57
2024/01/13 00:59:15;;;;;;;12.70;8.10;;;;;;;-0.42;93.47;100282.47;5071257;28;20198;-58
2024/01/13 01:01:43;;;;;;;13.77;7.50;;;;;;;-0.43;93.37;100273.16;5070918;28;20233;-56
2024/01/13 01:04:11;;;;;;;10.67;7.67;;;;;;;-0.41;93.72;100266.47;5070278;28;20964;-57
2024/01/13 01:06:39;;;;;;;12.90;8.37;;;;;;;-0.40;92.72;100258.94;5067865;28;20656;-56
2024/01/13 01:09:07;;;;;;;13.03;8.27;;;;;;;-0.40;93.24;100261.47;5070384;28;20268;-59
2024/01/13 01:11:35;;;;;;;13.50;8.43;;;;;;;-0.41;93.58;100256.34;5071549;28;20211;-57
2024/01/13 01:14:03;;;;;;;12.73;8.03;;;;;;;-0.41;92.78;100254.66;5071307;28;20615;-60
2024/01/13 01:16:32;;;;;;;13.20;9.03;;;;;;;-0.39;93.16;100257.28;5068001;28;20201;-57
2024/01/13 01:19:00;;;;;;;12.33;8.07;;;;;;;-0.39;92.99;100254.75;5071067;28;20205;-58
2024/01/13 01:21:28;;;;;;;12.67;7.13;;;;;;;-0.40;93.25;100261.47;5067178;28;20208;-58
2024/01/13 01:23:56;;;;;;;9.70;7.47;;;;;;;-0.39;93.15;100259.81;5071378;28;20247;-58
2024/01/13 01:26:24;;;;;;;11.30;7.63;;;;;;;-0.37;93.25;100268.28;5062668;28;20197;-58
2024/01/13 01:28:52;;;;;;;9.83;7.13;;;;;;;-0.37;92.23;100251.47;5070478;28;20702;-58
2024/01/13 01:31:20;;;;;;;10.17;6.53;;;;;;;-0.38;93.04;100256.44;5070419;28;20205;-62
2024/01/13 01:33:49;;;;;;;11.13;6.80;;;;;;;-0.35;93.35;100259.97;5071009;28;20706;-58
2024/01/13 01:36:17;;;;;;;12.77;6.90;;;;;;;-0.34;92.50;100263.34;5070204;28;20212;-58
2024/01/13 01:38:45;;;;;;;11.10;7.73;;;;;;;-0.34;92.79;100264.22;5066998;28;20649;-60
2024/01/13 01:41:15;;;;;;;10.87;7.03;;;;;;;-0.34;92.49;100259.16;5066646;28;20201;-53
2024/01/13 01:43:45;;;;;;;13.30;8.07;;;;;;;-0.31;92.41;100255.88;5065258;28;20205;-59
2024/01/13 01:46:16;;;;;;;11.80;7.10;;;;;;;-0.31;92.38;100258.41;5070228;28;20197;-58
2024/01/13 01:48:46;;;;;;;10.43;6.83;;;;;;;-0.31;92.42;100250.81;5070159;28;20236;-59
2024/01/13 01:51:16;;;;;;;11.00;6.70;;;;;;;-0.30;92.11;100255.06;5076901;28;20193;-58
2024/01/13 01:53:47;;;;;;;10.13;6.23;;;;;;;-0.28;91.47;100250.91;5067644;28;20217;-58
2024/01/13 01:56:19;;;;;;;8.57;6.73;;;;;;;-0.26;91.04;100254.34;5068955;28;20284;-62
2024/01/13 01:58:49;;;;;;;11.20;7.70;;;;;;;-0.26;90.92;100262.84;5067458;28;20224;-57
2024/01/13 02:01:18;;;;;;;8.27;5.83;;;;;;;-0.28;91.04;100245.84;5070143;28;20205;-59
2024/01/13 02:03:48;;;;;;;9.03;6.00;;;;;;;-0.29;90.04;100246.66;5070753;28;20679;-58
2024/01/13 02:06:17;;;;;;;7.83;6.17;;;;;;;-0.29;90.05;100246.66;5069793;28;20201;-58
2024/01/13 02:08:46;;;;;;;9.43;6.70;;;;;;;-0.26;90.29;100239.16;5069547;28;20491;-59
2024/01/13 02:11:14;;;;;;;11.07;6.47;;;;;;;-0.26;90.15;100241.69;5068557;28;20205;-57
2024/01/13 02:13:45;;;;;;;11.10;6.10;;;;;;;-0.25;89.58;100239.22;5066308;28;20217;-58
2024/01/13 02:16:15;;;;;;;9.00;6.63;;;;;;;-0.25;89.25;100230.78;5068855;28;20551;-57
2024/01/13 02:18:43;;;;;;;9.57;5.87;;;;;;;-0.27;88.99;100229.84;5074188;28;20228;-57
2024/01/13 02:21:13;;;;;;;9.77;5.80;;;;;;;-0.27;89.49;100220.56;5070395;28;20667;-56
2024/01/13 02:23:45;;;;;;;7.90;6.13;;;;;;;-0.27;89.37;100220.56;5074125;28;20300;-59
2024/01/13 02:26:13;;;;;;;9.20;6.60;;;;;;;-0.25;89.65;100218.13;5070106;28;20205;-57
2024/01/13 02:28:41;;;;;;;8.87;5.83;;;;;;;-0.25;89.34;100205.47;5074497;28;20648;-57
2024/01/13 02:31:16;;;;;;;8.43;5.47;;;;;;;-0.25;89.61;100216.44;5064911;28;20201;-60
2024/01/13 02:33:49;;;;;;;9.77;6.40;;;;;;;-0.25;89.33;100210.53;5074119;28;20759;-57
2024/01/13 02:36:17;;;;;;;7.77;5.83;;;;;;;-0.25;88.97;100198.72;5073332;28;20197;-58
2024/01/13 02:38:47;;;;;;;8.70;6.07;;;;;;;-0.26;88.75;100191.06;5074726;28;20220;-59
2024/01/13 02:41:15;;;;;;;8.50;6.40;;;;;;;-0.25;89.07;100192.78;5072549;28;20241;-58
2024/01/13 02:43:43;;;;;;;8.93;6.43;;;;;;;-0.25;89.13;100187.72;5069587;28;20717;-57
2024/01/13 02:46:11;;;;;;;8.50;5.73;;;;;;;-0.25;88.93;100182.66;5070808;28;20617;-57
2024/01/13 02:48:41;;;;;;;10.23;6.57;;;;;;;-0.26;88.51;100178.38;5066400;28;20645;-58
2024/01/13 02:51:13;;;;;;;6.40;5.13;;;;;;;-0.30;89.42;100185.03;5070559;28;20201;-57
2024/01/13 02:53:43;;;;;;;11.87;7.30;;;;;;;-0.29;89.20;100170.72;5073129;28;20205;-58
2024/01/13 02:56:12;;;;;;;9.60;6.50;;;;;;;-0.30;89.09;100168.97;5071329;28;20848;-56
2024/01/13 02:58:40;;;;;;;7.27;5.83;;;;;;;-0.29;88.69;100150.47;5073696;28;20207;-58
2024/01/13 03:01:13;;;;;;;10.50;6.20;;;;;;;-0.30;89.06;100153.78;5072084;28;20201;-57
2024/01/13 03:03:44;;;;;;;9.27;6.17;;;;;;;-0.30;88.97;100158.84;5067161;28;20220;-56
2024/01/13 03:06:12;;;;;;;11.23;6.63;;;;;;;-0.27;88.57;100169.09;5073149;28;20213;-57
2024/01/13 03:08:40;;;;;;;7.40;5.77;;;;;;;-0.29;88.33;100171.56;5066283;28;20220;-57
2024/01/13 03:11:12;;;;;;;8.57;6.00;;;;;;;-0.28;88.41;100158.09;5071192;28;20259;-58
2024/01/13 03:13:43;;;;;;;11.37;6.83;;;;;;;-0.28;88.94;100162.31;5066516;28;20284;-57
2024/01/13 03:16:12;;;;;;;10.63;7.73;;;;;;;-0.31;89.37;100157.13;5065502;28;20304;-56
2024/01/13 03:18:39;;;;;;;9.13;5.70;;;;;;;-0.33;89.46;100154.56;5072321;28;20201;-58
2024/01/13 03:21:12;;;;;;;12.77;7.03;;;;;;;-0.34;88.87;100160.41;5069471;28;20320;-58
2024/01/13 03:23:42;;;;;;;7.37;6.40;;;;;;;-0.30;89.47;100164.75;5068525;28;20672;-60
2024/01/13 03:26:13;;;;;;;8.30;6.23;;;;;;;-0.30;89.37;100171.50;5066556;28;20205;-58
2024/01/13 03:28:42;;;;;;;10.63;6.43;;;;;;;-0.29;89.54;100165.66;5073128;28;20205;-57
2024/01/13 03:31:13;;;;;;;8.37;6.17;;;;;;;-0.28;89.70;100170.75;5070213;28;20236;-56
2024/01/13 03:33:44;;;;;;;8.77;6.17;;;;;;;-0.26;89.23;100175.84;5068123;28;20722;-59
2024/01/13 03:36:13;;;;;;;10.47;6.53;;;;;;;-0.26;89.32;100170.78;5067055;28;20217;-59
2024/01/13 03:38:40;;;;;;;9.43;6.27;;;;;;;-0.26;89.66;100176.75;5073178;28;20560;-58
2024/01/13 03:41:14;;;;;;;12.27;7.10;;;;;;;-0.26;89.34;100173.31;5072485;28;20255;-58
2024/01/13 03:43:43;;;;;;;10.07;7.43;;;;;;;-0.28;89.59;100175.81;5072023;28;20212;-58
2024/01/13 03:46:12;;;;;;;9.83;6.63;;;;;;;-0.27;89.59;100174.16;5072105;28;20212;-59
2024/01/13 03:48:40;;;;;;;11.30;8.03;;;;;;;-0.26;90.17;100175.84;5071581;28;20201;-58
2024/01/13 03:51:10;;;;;;;9.90;6.73;;;;;;;-0.24;90.13;100164.13;5069732;28;20208;-57
2024/01/13 03:53:38;;;;;;;12.33;7.57;;;;;;;-0.23;90.05;100164.97;5072329;28;20208;-59
2024/01/13 03:56:08;;;;;;;11.07;7.50;;;;;;;-0.25;89.59;100158.22;5072114;28;20213;-59
2024/01/13 03:58:39;;;;;;;11.17;7.87;;;;;;;-0.22;89.86;100151.50;5068490;28;20202;-55
2024/01/13 04:01:08;;;;;;;11.30;7.07;;;;;;;-0.20;89.75;100154.97;5068917;28;20205;-58
2024/01/13 04:03:37;;;;;;;13.37;7.13;;;;;;;-0.18;90.93;100150.81;5072416;28;20714;-57
2024/01/13 04:06:06;;;;;;;11.53;8.10;;;;;;;-0.18;90.06;100156.75;5066682;28;20518;-58
2024/01/13 04:08:35;;;;;;;12.17;8.60;;;;;;;-0.21;90.40;100149.03;5072260;28;20677;-58
2024/01/13 04:11:07;;;;;;;10.97;7.80;;;;;;;-0.21;90.30;100158.31;5071539;28;20270;-59
2024/01/13 04:13:35;;;;;;;14.00;8.67;;;;;;;-0.20;90.99;100160.88;5072211;28;20671;-62
2024/01/13 04:16:05;;;;;;;14.00;8.23;;;;;;;-0.18;90.29;100150.81;5070766;28;20240;-56
2024/01/13 04:18:33;;;;;;;12.53;8.00;;;;;;;-0.16;90.48;100150.03;5066570;28;20212;-57
2024/01/13 04:21:02;;;;;;;14.67;8.27;;;;;;;-0.14;90.40;100152.66;5071032;28;20263;-58
2024/01/13 04:23:47;;;;;;;12.80;8.10;;;;;;;-0.16;90.32;100157.63;5071928;28;20205;-56
2024/01/13 04:26:15;;;;;;;15.33;9.47;;;;;;;-0.13;90.07;100165.34;5070077;28;20208;-58
2024/01/13 04:28:43;;;;;;;14.10;9.03;;;;;;;-0.17;90.26;100168.59;5070780;28;20205;-57
2024/01/13 04:31:12;;;;;;;12.63;8.77;;;;;;;-0.17;90.76;100185.47;5071962;28;20209;-59
2024/01/13 04:33:40;;;;;;;11.90;8.80;;;;;;;-0.17;90.78;100183.78;5070415;28;20216;-57
2024/01/13 04:36:09;;;;;;;11.93;8.27;;;;;;;-0.16;90.56;100177.03;5071107;28;20213;-57
2024/01/13 04:38:37;;;;;;;10.27;7.30;;;;;;;-0.16;90.43;100172.84;5072107;28;20209;-58
2024/01/13 04:41:05;;;;;;;11.90;8.70;;;;;;;-0.16;90.69;100172.84;5069711;28;20683;-57
2024/01/13 04:43:34;;;;;;;14.27;8.63;;;;;;;-0.15;91.12;100174.56;5071855;28;20202;-57
2024/01/13 04:46:02;;;;;;;14.03;10.13;;;;;;;-0.15;90.88;100172.00;5070617;28;20206;-56
2024/01/13 04:48:31;;;;;;;14.53;9.20;;;;;;;-0.17;91.18;100172.78;5069835;28;20724;-58
2024/01/13 04:50:59;;;;;;;13.63;8.70;;;;;;;-0.19;91.81;100167.66;5071191;28;20208;-58
2024/01/13 04:53:27;;;;;;;13.37;8.80;;;;;;;-0.17;91.60;100165.19;5071531;28;20652;-57
2024/01/13 04:55:56;;;;;;;13.40;9.10;;;;;;;-0.17;91.79;100165.19;5068149;28;20217;-58
2024/01/13 04:58:24;;;;;;;11.93;8.53;;;;;;;-0.17;91.78;100155.06;5071415;28;20208;-58
2024/01/13 05:00:52;;;;;;;13.63;9.30;;;;;;;-0.18;91.11;100161.81;5071509;28;20240;-57
2024/01/13 05:03:20;;;;;;;13.93;7.77;;;;;;;-0.17;91.55;100168.59;5070576;28;20208;-57
2024/01/13 05:05:49;;;;;;;13.47;8.97;;;;;;;-0.17;91.90;100161.00;5070833;28;20671;-58
2024/01/13 05:08:17;;;;;;;13.27;8.73;;;;;;;-0.15;92.06;100168.63;5070705;28;20204;-58
2024/01/13 05:10:45;;;;;;;10.43;7.60;;;;;;;-0.15;91.88;100174.56;5070409;28;20216;-60
2024/01/13 05:13:13;;;;;;;12.63;8.00;;;;;;;-0.16;91.78;100172.84;5071486;28;20672;-58
2024/01/13 05:15:42;;;;;;;12.97;7.97;;;;;;;-0.13;92.20;100167.03;5070886;28;20225;-57
2024/01/13 05:18:10;;;;;;;11.23;8.80;;;;;;;-0.15;91.85;100164.41;5065363;28;20567;-57
2024/01/13 05:20:41;;;;;;;11.67;9.00;;;;;;;-0.17;92.90;100166.06;5069587;28;20606;-58
2024/01/13 05:23:10;;;;;;;14.77;9.33;;;;;;;-0.19;92.79;100167.66;5071178;28;20209;-58
2024/01/13 05:25:39;;;;;;;13.27;8.97;;;;;;;-0.18;94.12;100171.09;5062171;28;20255;-57
2024/01/13 05:28:07;;;;;;;13.00;8.93;;;;;;;-0.20;93.93;100170.16;5070929;28;20202;-58
2024/01/13 05:30:35;;;;;;;12.47;8.67;;;;;;;-0.21;93.75;100179.44;5069652;28;20223;-56
2024/01/13 05:33:03;;;;;;;12.97;9.20;;;;;;;-0.23;94.23;100191.16;5071278;28;20306;-57
2024/01/13 05:35:31;;;;;;;12.43;8.60;;;;;;;-0.24;94.33;100189.44;5070228;28;20263;-56
2024/01/13 05:37:59;;;;;;;15.80;8.67;;;;;;;-0.27;94.30;100185.13;5068189;28;20205;-57
2024/01/13 05:40:28;;;;;;;12.20;7.97;;;;;;;-0.26;93.39;100186.00;5060056;28;20645;-55
2024/01/13 05:42:56;;;;;;;11.33;7.67;;;;;;;-0.31;94.12;100183.31;5060197;28;20208;-56
2024/01/13 05:45:24;;;;;;;11.40;8.17;;;;;;;-0.28;94.72;100187.63;5070446;28;20567;-57
2024/01/13 05:47:52;;;;;;;11.83;8.87;;;;;;;-0.29;94.11;100194.34;5070569;28;20568;-51
2024/01/13 05:50:20;;;;;;;11.47;8.17;;;;;;;-0.28;95.10;100187.63;5070389;28;20229;-53
2024/01/13 05:52:48;;;;;;;12.07;8.47;;;;;;;-0.26;95.47;100191.06;5070123;28;20205;-54
2024/01/13 05:55:16;;;;;;;11.77;8.13;;;;;;;-0.26;95.63;100191.94;5070241;28;20266;-56
2024/01/13 05:57:46;;;;;;;12.93;8.20;;;;;;;-0.25;94.83;100200.38;5068434;28;20209;-55
2024/01/13 06:00:14;;;;;;;11.67;7.27;;;;;;;-0.28;94.89;100185.09;5060598;28;20201;-56
2024/01/13 06:02:43;;;;;;;12.80;8.67;;;;;;;-0.31;95.10;100180.78;5070125;28;20201;-56
2024/01/13 06:05:11;;;;;;;13.00;8.17;;;;;;;-0.34;95.24;100180.66;5070098;28;20248;-55
2024/01/13 06:07:40;;;;;;;13.23;8.30;;;;;;;-0.36;96.12;100174.72;5069652;28;20254;-53
2024/01/13 06:10:11;;;;;;;11.77;8.30;;;;;;;-0.35;96.91;100171.34;5070090;28;20584;-56
2024/01/13 06:12:39;;;;;;;12.73;8.07;;;;;;;-0.36;96.36;100173.84;5065267;28;20204;-58
2024/01/13 06:15:09;;;;;;;11.13;7.57;;;;;;;-0.35;96.85;100178.09;5066662;28;20260;-56
2024/01/13 06:17:37;;;;;;;10.17;7.63;;;;;;;-0.34;96.18;100172.22;5063939;28;20535;-57
2024/01/13 06:20:08;;;;;;;12.00;7.93;;;;;;;-0.35;96.50;100178.09;5069007;28;20805;-58
2024/01/13 06:22:36;;;;;;;11.77;7.60;;;;;;;-0.34;96.47;100175.59;5063468;28;20194;-59
2024/01/13 06:25:05;;;;;;;10.70;7.33;;;;;;;-0.34;96.47;100173.06;5063043;28;20201;-56
2024/01/13 06:27:33;;;;;;;10.83;7.53;;;;;;;-0.31;96.29;100184.97;5061885;28;20687;-56
2024/01/13 06:30:02;;;;;;;11.17;7.60;;;;;;;-0.31;95.68;100182.44;5067954;28;20255;-57
2024/01/13 06:32:33;;;;;;;13.83;7.27;;;;;;;-0.32;96.31;100179.06;5065954;28;20208;-57
2024/01/13 06:35:02;;;;;;;13.17;8.63;;;;;;;-0.30;95.47;100174.03;5069877;28;20201;-55
2024/01/13 06:37:30;;;;;;;13.10;8.30;;;;;;;-0.36;95.56;100174.72;5063838;28;20231;-57
2024/01/13 06:39:58;;;;;;;13.13;7.83;;;;;;;-0.37;95.59;100182.22;5068329;28;20675;-55
2024/01/13 06:42:26;;;;;;;12.80;8.10;;;;;;;-0.34;95.29;100182.34;5070022;28;20243;-57
2024/01/13 06:44:54;;;;;;;10.43;7.50;;;;;;;-0.31;95.84;100182.44;5070016;28;20663;-56
2024/01/13 06:47:22;;;;;;;14.97;7.87;;;;;;;-0.32;94.87;100189.19;5067336;28;20194;-55
2024/01/13 06:49:52;;;;;;;10.70;7.23;;;;;;;-0.34;94.89;100183.19;5070135;28;20291;-55
2024/01/13 06:52:20;;;;;;;14.53;7.13;;;;;;;-0.31;95.29;100187.50;5067236;28;20540;-55
2024/01/13 06:54:48;;;;;;;11.57;8.10;;;;;;;-0.30;95.29;100184.16;5059951;28;20602;-57
2024/01/13 06:57:16;;;;;;;14.13;8.43;;;;;;;-0.31;94.95;100185.84;5069289;28;20209;-56
2024/01/13 06:59:45;;;;;;;12.93;8.17;;;;;;;-0.29;95.55;100188.44;5073234;28;20684;-54
2024/01/13 07:02:14;;;;;;;14.33;7.80;;;;;;;-0.28;95.49;100192.69;5069931;28;20277;-57
2024/01/13 07:04:45;;;;;;;12.23;7.43;;;;;;;-0.25;96.10;100193.66;5070568;28;20285;-57
2024/01/13 07:07:14;;;;;;;13.87;8.20;;;;;;;-0.23;95.24;100196.22;5072702;28;20197;-49
2024/01/13 07:09:42;;;;;;;12.60;8.10;;;;;;;-0.24;94.13;100199.56;5074189;28;20197;-52
2024/01/13 07:12:10;;;;;;;11.77;7.83;;;;;;;-0.23;95.26;100200.44;5068345;28;20882;-51
2024/01/13 07:14:38;;;;;;;14.20;7.97;;;;;;;-0.21;94.68;100208.94;5069145;28;20668;-51
2024/01/13 07:17:06;;;;;;;13.03;7.67;;;;;;;-0.20;94.79;100209.00;5074032;28;20612;-54
2024/01/13 07:19:36;;;;;;;11.33;8.00;;;;;;;-0.16;94.78;100209.97;5069757;28;20656;-57
2024/01/13 07:22:05;;;;;;;14.70;8.07;;;;;;;-0.14;94.30;100214.28;5075583;28;20213;-52
2024/01/13 07:24:34;;;;;;;12.53;7.60;;;;;;;-0.13;94.28;100217.66;5073390;28;20251;-52
2024/01/13 07:27:03;;;;;;;12.03;7.73;;;;;;;-0.10;94.13;100217.78;5062131;28;20661;-50
2024/01/13 07:29:31;;;;;;;12.57;8.30;;;;;;;-0.09;93.79;100215.28;5067235;28;20194;-51
2024/01/13 07:31:59;;;;;;;14.87;7.93;;;;;;;-0.09;94.16;100215.28;5060325;28;20206;-50
2024/01/13 07:34:27;;;;;;;12.07;8.10;;;;;;;-0.08;93.10;100206.00;5066052;28;20216;-51
2024/01/13 07:36:55;;;;;;;10.10;7.50;;;;;;;-0.11;93.61;100216.91;5067470;28;20244;-50
2024/01/13 07:39:23;;;;;;;14.57;8.93;;;;;;;-0.11;93.68;100218.56;5071889;28;20204;-50
2024/01/13 07:41:53;;;;;;;15.30;9.23;;;;;;;-0.12;93.45;100220.25;5069065;28;20683;-52
2024/01/13 07:44:21;;;;;;;13.40;8.40;;;;;;;-0.12;93.99;100225.31;5073905;28;20660;-52
2024/01/13 07:46:49;;;;;;;13.27;8.80;;;;;;;-0.09;93.94;100224.56;5073514;28;20214;-51
2024/01/13 07:49:17;;;;;;;15.97;8.93;;;;;;;-0.09;94.12;100220.34;5068815;28;20253;-52
2024/01/13 07:51:49;;;;;;;14.37;9.30;;;;;;;-0.10;94.37;100213.56;5072061;28;20724;-51
2024/01/13 07:54:18;;;;;;;17.20;10.50;;;;;;;-0.11;94.25;100211.84;5069709;28;20201;-52
2024/01/13 07:56:47;;;;;;;15.83;8.73;;;;;;;-0.11;94.90;100201.72;5070641;28;20576;-51
2024/01/13 07:59:17;;;;;;;15.50;10.73;;;;;;;-0.08;95.04;100206.88;5069841;28;20228;-52
2024/01/13 08:01:45;;;;;;;15.97;11.07;;;;;;;-0.10;95.28;100208.50;5071977;28;20206;-54
2024/01/13 08:04:15;;;;;;;16.47;9.83;;;;;;;-0.07;95.51;100208.63;5072509;28;20613;-52
2024/01/13 08:06:43;;;;;;;14.53;9.73;;;;;;;-0.04;95.23;100207.84;5064217;28;20201;-54
2024/01/13 08:09:12;;;;;;;15.73;9.30;;;;;;;0.00;95.17;100204.63;5061774;28;20197;-52
2024/01/13 08:11:40;;;;;;;17.60;9.87;;;;;;;0.04;94.28;100205.56;5071341;28;20231;-52
2024/01/13 08:14:12;;;;;;;17.27;10.07;;;;;;;0.07;94.10;100198.06;5065256;28;20580;-51
2024/01/13 08:16:42;;;;;;;16.80;10.37;;;;;;;0.09;93.93;100196.44;5071962;28;20606;-48
2024/01/13 08:19:10;;;;;;;16.60;10.07;;;;;;;0.06;93.21;100192.13;5071629;28;20201;-51
2024/01/13 08:21:39;;;;;;;15.10;10.43;;;;;;;0.04;92.28;100191.25;5072723;28;20296;-55
2024/01/13 08:24:09;;;;;;;15.30;9.13;;;;;;;0.05;92.95;100198.03;5067313;28;20653;-54
2024/01/13 08:26:39;;;;;;;15.57;9.53;;;;;;;0.06;93.17;100198.88;5066297;28;20540;-52
2024/01/13 08:29:08;;;;;;;13.57;9.23;;;;;;;0.06;92.71;100193.81;5068423;28;20236;-56
2024/01/13 08:31:36;;;;;;;18.23;10.33;;;;;;;0.09;92.33;100204.06;5067648;28;20209;-57
2024/01/13 08:34:09;;;;;;;15.63;9.90;;;;;;;0.14;92.45;100203.38;5071163;28;20236;-56
2024/01/13 08:36:41;;;;;;;14.60;9.40;;;;;;;0.17;92.51;100200.09;5066364;28;20224;-56
2024/01/13 08:39:10;;;;;;;15.73;9.13;;;;;;;0.20;92.25;100198.53;5064651;28;20197;-56
2024/01/13 08:41:38;;;;;;;14.97;10.00;;;;;;;0.23;91.99;100197.78;5064559;28;20225;-54
2024/01/13 08:44:06;;;;;;;14.87;8.93;;;;;;;0.28;92.15;100208.03;5061685;28;20209;-56
2024/01/13 08:46:34;;;;;;;19.73;10.83;;;;;;;0.28;92.17;100208.03;5059486;28;20274;-57
2024/01/13 08:49:02;;;;;;;15.77;9.07;;;;;;;0.28;91.73;100196.22;5069077;28;20248;-57
2024/01/13 08:51:31;;;;;;;16.80;9.07;;;;;;;0.30;91.53;100207.28;5071012;28;20225;-56
2024/01/13 08:54:03;;;;;;;18.03;10.37;;;;;;;0.32;90.90;100218.31;5066547;28;20201;-56
2024/01/13 08:56:34;;;;;;;16.33;8.70;;;;;;;0.34;90.61;100218.38;5059906;28;20205;-56
2024/01/13 08:59:05;;;;;;;14.27;8.97;;;;;;;0.32;89.93;100215.78;5069947;28;20213;-58
2024/01/13 09:01:33;;;;;;;14.90;9.50;;;;;;;0.30;89.66;100217.44;5059980;28;20573;-57
2024/01/13 09:04:06;;;;;;;14.53;8.90;;;;;;;0.30;89.22;100214.03;5068375;28;20298;-53
2024/01/13 09:06:36;;;;;;;12.43;8.57;;;;;;;0.30;89.44;100222.50;5072128;28;20232;-55
2024/01/13 09:09:05;;;;;;;15.77;9.50;;;;;;;0.23;88.66;100215.50;5071467;28;20640;-56
2024/01/13 09:11:34;;;;;;;13.53;8.50;;;;;;;0.21;88.68;100214.56;5064822;28;20293;-57
2024/01/13 09:14:11;;;;;;;13.63;8.10;;;;;;;0.16;88.92;100208.50;5064864;28;20250;-56
2024/01/13 09:16:41;;;;;;;12.70;7.90;;;;;;;0.13;88.70;100204.19;5064809;28;20213;-64
2024/01/13 09:19:09;;;;;;;14.90;8.33;;;;;;;0.13;88.55;100205.88;5069653;28;20308;-55
2024/01/13 09:21:40;;;;;;;14.33;8.63;;;;;;;0.10;88.49;100195.63;5067981;28;20564;-57
2024/01/13 09:24:12;;;;;;;12.80;8.17;;;;;;;0.12;88.48;100199.09;5069331;28;20208;-57
2024/01/13 09:26:41;;;;;;;15.03;8.27;;;;;;;0.15;88.62;100186.53;5063518;28;20255;-59
2024/01/13 09:29:13;;;;;;;15.40;9.17;;;;;;;0.15;87.85;100181.47;5063988;28;20590;-56
2024/01/13 09:31:41;;;;;;;16.53;8.87;;;;;;;0.13;87.92;100185.59;5064583;28;20201;-59
2024/01/13 09:34:10;;;;;;;13.77;8.27;;;;;;;0.17;88.73;100195.03;5058888;28;20201;-58
2024/01/13 09:36:42;;;;;;;15.50;8.43;;;;;;;0.19;87.79;100190.88;5065058;28;20208;-58
2024/01/13 09:39:17;;;;;;;16.60;8.70;;;;;;;0.17;87.77;100187.44;5070241;28;20220;-58
2024/01/13 09:41:46;;;;;;;13.47;7.70;;;;;;;0.15;87.54;100179.78;5071011;28;20658;-58
2024/01/13 09:44:21;;;;;;;12.57;8.00;;;;;;;0.16;87.72;100175.56;5068585;28;20239;-57
2024/01/13 09:46:51;;;;;;;16.53;8.67;;;;;;;0.17;87.84;100174.75;5063401;28;20283;-57
2024/01/13 09:49:20;;;;;;;16.47;8.53;;;;;;;0.18;86.75;100184.94;5067953;28;20595;-59
2024/01/13 09:51:50;;;;;;;18.97;9.10;;;;;;;0.07;87.69;100168.53;5065503;28;20675;-59
2024/01/13 09:54:23;;;;;;;16.03;8.80;;;;;;;0.07;87.83;100157.53;5063623;28;20201;-58
2024/01/13 09:56:52;;;;;;;19.77;9.87;;;;;;;0.06;88.09;100163.41;5055323;28;20210;-58
2024/01/13 09:59:21;;;;;;;18.20;9.70;;;;;;;0.08;88.33;100154.22;5066173;28;20209;-57
2024/01/13 10:01:50;;;;;;;21.37;10.97;;;;;;;-0.01;87.83;100158.13;5063549;28;20213;-59
2024/01/13 10:04:19;;;;;;;18.07;9.83;;;;;;;-0.08;87.72;100145.22;5070289;28;20231;-59
2024/01/13 10:06:48;;;;;;;24.37;11.40;;;;;;;-0.09;88.70;100139.31;5058808;28;20244;-60
2024/01/13 10:09:18;;;;;;;15.80;10.53;;;;;;;-0.06;88.83;100149.53;5066510;28;20233;-60
2024/01/13 10:12:04;;;;;;;20.87;10.80;;;;;;;-0.03;88.67;100138.66;5059195;28;20224;-57
2024/01/13 10:14:33;;;;;;;19.47;10.37;;;;;;;-0.05;88.55;100130.13;5062161;28;20288;-57
2024/01/13 10:17:02;;;;;;;22.60;12.03;;;;;;;-0.09;88.02;100135.91;5060182;28;20224;-60
2024/01/13 10:19:31;;;;;;;22.73;10.87;;;;;;;-0.21;88.78;100127.94;5065588;28;20214;-59
2024/01/13 10:21:59;;;;;;;23.60;11.93;;;;;;;-0.21;89.75;100125.41;5064715;28;20279;-59
2024/01/13 10:24:29;;;;;;;22.50;11.83;;;;;;;-0.21;89.84;100126.25;5071608;28;20213;-59
2024/01/13 10:26:57;;;;;;;20.43;11.40;;;;;;;-0.18;90.19;100123.81;5062716;28;20857;-61
2024/01/13 10:29:25;;;;;;;22.43;11.70;;;;;;;-0.19;89.56;100119.56;5061710;28;20201;-60
2024/01/13 10:31:54;;;;;;;20.50;11.93;;;;;;;-0.18;89.24;100126.34;5063720;28;20290;-61
2024/01/13 10:34:23;;;;;;;20.37;11.20;;;;;;;-0.16;90.20;100112.06;5067623;28;20247;-57
2024/01/13 10:36:51;;;;;;;21.87;11.00;;;;;;;-0.13;89.48;100117.22;5072632;28;20660;-58
2024/01/13 10:39:19;;;;;;;20.77;11.97;;;;;;;-0.16;89.16;100096.88;5074533;28;20645;-60
2024/01/13 10:41:52;;;;;;;19.63;11.30;;;;;;;-0.20;89.37;100100.13;5066056;28;20224;-62
2024/01/13 10:44:26;;;;;;;20.77;11.97;;;;;;;-0.20;89.85;100105.19;5073709;28;20727;-58
2024/01/13 10:46:58;;;;;;;18.50;11.63;;;;;;;-0.22;89.90;100083.13;5072944;28;20205;-61
2024/01/13 10:49:30;;;;;;;18.97;10.83;;;;;;;-0.28;89.66;100091.41;5063663;28;20221;-60
2024/01/13 10:51:59;;;;;;;20.93;12.27;;;;;;;-0.29;89.94;100080.44;5068700;28;20209;-58
2024/01/13 10:54:29;;;;;;;22.23;11.83;;;;;;;-0.30;88.91;100081.22;5065519;28;20289;-65
2024/01/13 10:56:59;;;;;;;22.43;11.63;;;;;;;-0.30;89.34;100067.72;5069157;28;20232;-62
2024/01/13 10:59:29;;;;;;;24.13;11.73;;;;;;;-0.30;89.15;100062.66;5065340;28;20627;-57
2024/01/13 11:01:58;;;;;;;18.53;11.03;;;;;;;-0.28;89.87;100061.03;5064937;28;20205;-59
2024/01/13 11:04:28;;;;;;;20.00;11.03;;;;;;;-0.41;89.16;100048.78;5057988;28;20284;-58
2024/01/13 11:06:56;;;;;;;19.77;11.80;;;;;;;-0.42;89.25;100047.94;5067033;28;20205;-57
2024/01/13 11:09:25;;;;;;;22.20;11.87;;;;;;;-0.42;89.77;100040.34;5069343;28;20191;-57
2024/01/13 11:12:05;;;;;;;20.77;11.00;;;;;;;-0.44;90.19;100046.16;5072616;28;20205;-52
2024/01/13 11:14:39;;;;;;;20.80;11.97;;;;;;;-0.43;89.97;100043.69;5068322;28;20197;-52
2024/01/13 11:17:08;;;;;;;16.80;10.70;;;;;;;-0.42;90.53;100047.06;5067526;28;20204;-52
2024/01/13 11:19:36;;;;;;;19.53;12.00;;;;;;;-0.47;89.59;100053.66;5071052;28;20255;-51
2024/01/13 11:22:33;;;;;;;22.17;12.50;;;;;;;-0.55;90.03;100051.75;5068080;28;20213;-58
2024/01/13 11:25:24;;;;;;;18.27;10.67;;;;;;;-0.55;91.28;100050.88;5070896;28;20258;-59
2024/01/13 11:28:00;;;;;;;19.60;10.67;;;;;;;-0.56;90.40;100046.63;5071652;28;20212;-59